Time;durP1;ratioP1;P1;durP2;ratioP2;P2;SDS_P1;SDS_P2;PMS_P1;PMS_P2;Temp;Humidity;BMP_temperature;BMP_pressure;BME280_temperature;BME280_humidity;BME280_pressure;Samples;Min_cycle;Max_cycle;Signal;HPM_P1;HPM_P2
2023/10/14 00:01:04;;;;;;;40.58;29.50;;;435.90;2355.20;;;;;;5054580;28;20059;-78
2023/10/14 00:03:32;;;;;;;42.15;30.23;;;435.80;2355.20;;;;;;5054604;28;20028;-79
2023/10/14 00:06:08;;;;;;;49.80;31.63;;;435.60;2355.20;;;;;;5054606;28;20070;-79
2023/10/14 00:08:35;;;;;;;42.00;31.38;;;435.50;2355.20;;;;;;5054102;28;20025;-79
2023/10/14 00:11:06;;;;;;;47.20;31.48;;;435.20;2355.20;;;;;;5052843;28;20025;-79
2023/10/14 00:13:38;;;;;;;47.53;32.13;;;435.30;2355.20;;;;;;5052846;28;20171;-79
2023/10/14 00:16:22;;;;;;;53.08;34.58;;;435.20;2355.20;;;;;;5049718;28;20570;-79
2023/10/14 00:18:48;;;;;;;47.78;32.45;;;410.50;2355.20;;;;;;5082757;28;20020;-79
2023/10/14 00:21:14;;;;;;;48.75;33.65;;;410.50;2355.20;;;;;;5054014;28;20029;-79
2023/10/14 00:23:40;;;;;;;48.92;34.70;;;410.40;2355.20;;;;;;5052688;28;20028;-79
2023/10/14 00:26:14;;;;;;;54.53;35.28;;;410.40;2355.20;;;;;;5061721;28;20019;-78
2023/10/14 00:28:41;;;;;;;48.17;33.10;;;410.40;2355.20;;;;;;5077630;28;20025;-78
2023/10/14 00:31:10;;;;;;;44.35;31.77;;;435.30;2355.20;;;;;;5074328;28;20025;-78
2023/10/14 00:33:37;;;;;;;46.42;35.35;;;435.30;2355.20;;;;;;5052882;28;20021;-78
2023/10/14 00:36:03;;;;;;;56.75;37.45;;;435.50;2355.20;;;;;;5053345;28;20025;-79
2023/10/14 00:38:34;;;;;;;42.13;33.50;;;435.50;2355.20;;;;;;5053255;28;20029;-79
2023/10/14 00:41:00;;;;;;;47.63;33.33;;;435.50;2355.20;;;;;;5053438;28;20033;-79
2023/10/14 00:43:25;;;;;;;48.40;33.88;;;435.40;2355.20;;;;;;5053021;28;20051;-78
2023/10/14 00:45:52;;;;;;;46.22;33.75;;;435.30;2355.20;;;;;;5053295;28;20024;-79
2023/10/14 00:48:27;;;;;;;51.90;34.38;;;435.20;2355.20;;;;;;5053176;28;20017;-79
2023/10/14 00:50:58;;;;;;;45.80;35.00;;;435.30;2355.20;;;;;;5050888;28;20025;-79
2023/10/14 00:53:27;;;;;;;55.53;35.45;;;410.50;2355.20;;;;;;5052069;28;20104;-79
2023/10/14 00:55:57;;;;;;;46.42;33.10;;;410.50;2355.20;;;;;;5052601;28;20374;-79
2023/10/14 00:58:23;;;;;;;53.15;34.72;;;410.50;2355.20;;;;;;5051342;28;20060;-79
2023/10/14 01:00:59;;;;;;;48.85;36.78;;;410.50;2355.20;;;;;;5053341;28;20021;-79
2023/10/14 01:03:31;;;;;;;44.30;34.65;;;410.50;2355.20;;;;;;5053048;28;20025;-79
2023/10/14 01:05:58;;;;;;;55.28;34.42;;;435.20;2355.20;;;;;;5052984;28;20096;-79
2023/10/14 01:08:25;;;;;;;50.70;34.38;;;435.30;2355.20;;;;;;5051924;28;20032;-79
2023/10/14 01:10:51;;;;;;;45.15;34.08;;;435.30;2355.20;;;;;;5053215;28;20078;-79
2023/10/14 01:13:22;;;;;;;43.33;32.65;;;410.30;2355.20;;;;;;5051917;28;20052;-79
2023/10/14 01:15:57;;;;;;;56.55;34.55;;;410.50;2355.20;;;;;;5052980;28;20363;-79
2023/10/14 01:18:23;;;;;;;46.10;32.28;;;410.30;2355.20;;;;;;5052073;28;20386;-79
2023/10/14 01:20:49;;;;;;;47.70;33.90;;;410.40;2355.20;;;;;;5052760;28;20025;-79
2023/10/14 01:23:14;;;;;;;47.72;34.78;;;410.30;2355.20;;;;;;5053107;28;20032;-78
2023/10/14 01:25:46;;;;;;;51.28;35.42;;;410.20;2355.20;;;;;;5051855;28;20032;-79
2023/10/14 01:28:21;;;;;;;48.67;34.67;;;410.20;2355.20;;;;;;5051724;28;20053;-79
2023/10/14 01:31:11;;;;;;;50.53;36.40;;;410.20;2355.20;;;;;;5052824;28;20186;-79
2023/10/14 01:33:37;;;;;;;53.50;34.95;;;410.30;2355.20;;;;;;5053029;28;20094;-79
2023/10/14 01:36:04;;;;;;;50.70;35.72;;;410.30;2355.20;;;;;;5052416;28;20036;-79
2023/10/14 01:38:33;;;;;;;51.38;35.92;;;410.30;2355.20;;;;;;5051409;28;20024;-79
2023/10/14 01:41:03;;;;;;;41.80;32.33;;;410.20;2355.20;;;;;;5052539;28;20025;-79
2023/10/14 01:43:31;;;;;;;44.33;34.13;;;410.00;2355.20;;;;;;5051003;28;20052;-79
2023/10/14 01:48:25;;;;;;;48.45;34.00;;;410.20;2355.20;;;;;;5052448;28;20493;-79
2023/10/14 01:50:54;;;;;;;55.30;37.78;;;410.20;2355.20;;;;;;5051245;28;20036;-78
2023/10/14 01:53:23;;;;;;;49.70;34.72;;;410.20;2355.20;;;;;;5051465;28;20017;-79
2023/10/14 01:55:52;;;;;;;43.13;34.25;;;410.00;2355.20;;;;;;5052520;28;20025;-79
2023/10/14 01:58:23;;;;;;;51.80;34.50;;;409.80;2355.20;;;;;;5052715;28;20029;-79
2023/10/14 02:00:58;;;;;;;45.17;33.10;;;409.70;2355.20;;;;;;5052820;28;20021;-79
2023/10/14 02:03:24;;;;;;;51.67;32.28;;;409.70;2355.20;;;;;;5056587;28;20017;-79
2023/10/14 02:05:53;;;;;;;45.47;32.08;;;409.70;2355.20;;;;;;5056150;28;20078;-79
2023/10/14 02:08:23;;;;;;;45.13;32.45;;;409.60;2355.20;;;;;;5055421;28;20043;-79
2023/10/14 02:10:50;;;;;;;40.83;30.38;;;409.60;2355.20;;;;;;5056465;28;20040;-80
2023/10/14 02:13:18;;;;;;;40.17;29.05;;;409.60;2355.20;;;;;;5055140;28;20549;-79
2023/10/14 02:15:46;;;;;;;43.45;29.58;;;409.60;2355.20;;;;;;5054734;28;20021;-79
2023/10/14 02:18:20;;;;;;;39.70;29.52;;;409.60;2355.20;;;;;;5055309;28;20025;-79
2023/10/14 02:20:58;;;;;;;40.83;28.30;;;409.70;2355.20;;;;;;5054827;28;20024;-79
2023/10/14 02:23:28;;;;;;;34.15;24.80;;;409.80;2355.20;;;;;;5054912;28;20110;-79
2023/10/14 02:25:57;;;;;;;34.28;25.70;;;410.00;2355.20;;;;;;5054956;28;20071;-79
2023/10/14 02:28:24;;;;;;;39.15;25.95;;;410.00;2355.20;;;;;;5055072;28;20032;-79
2023/10/14 02:30:53;;;;;;;37.88;24.38;;;410.20;2355.20;;;;;;5054904;28;20020;-79
2023/10/14 02:33:19;;;;;;;33.72;22.33;;;410.20;2355.20;;;;;;5054605;28;20029;-79
2023/10/14 02:35:45;;;;;;;30.33;21.52;;;410.20;2355.20;;;;;;5055849;28;20052;-79
2023/10/14 02:38:11;;;;;;;32.30;21.27;;;410.30;2355.20;;;;;;5054459;28;20470;-80
2023/10/14 02:40:37;;;;;;;30.67;20.67;;;410.30;2355.20;;;;;;5055794;28;20079;-79
2023/10/14 02:43:04;;;;;;;33.38;19.80;;;410.20;2355.20;;;;;;5054003;28;20453;-79
2023/10/14 02:45:38;;;;;;;32.67;20.30;;;410.30;2355.20;;;;;;5055930;28;20021;-79
2023/10/14 02:48:04;;;;;;;29.65;18.13;;;410.30;2355.20;;;;;;5054482;28;20013;-79
2023/10/14 02:50:32;;;;;;;28.58;19.73;;;410.30;2355.20;;;;;;5055312;28;20111;-80
2023/10/14 02:53:07;;;;;;;30.52;20.67;;;410.30;2355.20;;;;;;5055462;28;20013;-79
2023/10/14 02:55:52;;;;;;;25.63;18.60;;;410.30;2355.20;;;;;;5055423;28;20501;-79
2023/10/14 02:58:22;;;;;;;29.70;17.80;;;410.20;2355.20;;;;;;5043055;28;20025;-79
2023/10/14 03:00:58;;;;;;;26.90;18.35;;;410.20;2355.20;;;;;;5055309;28;20025;-79
2023/10/14 03:03:24;;;;;;;32.50;20.02;;;410.20;2355.20;;;;;;5055492;28;20071;-80
2023/10/14 03:05:53;;;;;;;29.55;19.05;;;410.20;2355.20;;;;;;5054225;28;20017;-80
2023/10/14 03:08:22;;;;;;;33.75;19.45;;;410.10;2355.20;;;;;;5054619;28;20041;-79
2023/10/14 03:10:59;;;;;;;29.17;19.77;;;410.20;2355.20;;;;;;5054430;28;20014;-80
2023/10/14 03:13:29;;;;;;;35.67;21.88;;;410.20;2355.20;;;;;;5053135;28;20037;-80
2023/10/14 03:15:55;;;;;;;38.22;21.67;;;410.10;2355.20;;;;;;5054239;28;20079;-80
2023/10/14 03:18:30;;;;;;;39.72;20.70;;;410.20;2355.20;;;;;;5054631;28;20024;-80
2023/10/14 03:23:25;;;;;;;35.42;22.90;;;410.20;2355.20;;;;;;5055246;28;20021;-80
2023/10/14 03:26:07;;;;;;;35.75;21.98;;;410.10;2355.20;;;;;;5054214;28;20112;-80
2023/10/14 03:28:37;;;;;;;34.50;22.83;;;410.00;2355.20;;;;;;5055266;28;20100;-80
2023/10/14 03:31:07;;;;;;;48.45;24.67;;;410.20;2355.20;;;;;;5054235;28;20436;-80
2023/10/14 03:33:42;;;;;;;33.85;23.40;;;410.20;2355.20;;;;;;5054922;28;20020;-80
2023/10/14 03:36:15;;;;;;;37.17;24.85;;;410.10;2355.20;;;;;;5054833;28;20040;-80
2023/10/14 03:38:42;;;;;;;37.90;25.13;;;410.00;2355.20;;;;;;5053705;28;20490;-80
2023/10/14 03:41:18;;;;;;;34.22;22.20;;;410.00;2355.20;;;;;;5054993;28;20079;-80
2023/10/14 03:43:54;;;;;;;42.58;24.92;;;410.00;2355.20;;;;;;5054612;28;20041;-80
2023/10/14 03:46:35;;;;;;;40.90;28.52;;;410.00;2355.20;;;;;;5053374;28;20037;-80
2023/10/14 03:49:20;;;;;;;38.78;24.50;;;410.00;2355.20;;;;;;5053630;28;20031;-80
2023/10/14 03:51:54;;;;;;;42.78;25.10;;;410.00;2355.20;;;;;;5041747;28;20025;-80
2023/10/14 03:54:24;;;;;;;47.00;27.05;;;410.00;2355.20;;;;;;5053267;28;20123;-80
2023/10/14 03:56:50;;;;;;;46.15;28.33;;;410.00;2355.20;;;;;;5053664;28;20041;-80
2023/10/14 03:59:22;;;;;;;42.00;28.77;;;409.70;2355.20;;;;;;5053483;28;20021;-80
2023/10/14 04:01:54;;;;;;;47.05;27.52;;;410.00;2355.20;;;;;;5053432;28;20024;-79
2023/10/14 04:04:21;;;;;;;40.83;28.00;;;410.10;2355.20;;;;;;5077233;28;20005;-79
2023/10/14 04:09:56;;;;;;;52.63;30.83;;;410.20;2355.20;;;;;;5053237;28;20029;-79
2023/10/14 04:12:37;;;;;;;49.15;30.23;;;410.20;2355.20;;;;;;5056767;28;20033;-80
2023/10/14 04:17:39;;;;;;;42.97;29.30;;;410.20;2355.20;;;;;;5053979;28;20136;-80
2023/10/14 04:22:43;;;;;;;41.72;26.40;;;410.20;2355.20;;;;;;5047210;28;20120;-78
2023/10/14 04:27:45;;;;;;;38.00;24.38;;;410.20;2355.20;;;;;;5064357;28;20554;-79
2023/10/14 04:30:12;;;;;;;49.25;25.33;;;410.10;2355.20;;;;;;5054017;28;20029;-79
2023/10/14 04:35:23;;;;;;;36.95;23.33;;;410.00;2355.20;;;;;;5057478;28;20496;-79
2023/10/14 04:37:52;;;;;;;29.05;22.67;;;410.00;2355.20;;;;;;5056295;28;20032;-79
2023/10/14 04:40:36;;;;;;;32.47;21.58;;;410.00;2355.20;;;;;;5061077;28;20095;-79
2023/10/14 04:46:00;;;;;;;32.08;20.33;;;410.00;2355.20;;;;;;5042683;28;20433;-79
2023/10/14 04:48:50;;;;;;;27.52;18.90;;;410.00;2355.20;;;;;;5055451;28;20053;-79
2023/10/14 04:51:21;;;;;;;30.08;20.45;;;409.80;2355.20;;;;;;5056050;28;20458;-79
2023/10/14 04:53:52;;;;;;;28.25;18.58;;;409.70;2355.20;;;;;;5048264;28;20060;-77
2023/10/14 04:56:29;;;;;;;28.48;18.42;;;409.70;2355.20;;;;;;5046282;28;20028;-78
2023/10/14 04:58:56;;;;;;;31.73;18.23;;;409.70;2355.20;;;;;;5056966;28;20027;-78
2023/10/14 05:01:24;;;;;;;32.15;17.90;;;409.60;2355.20;;;;;;5061248;28;20040;-79
2023/10/14 05:04:00;;;;;;;27.20;17.30;;;409.60;2355.20;;;;;;5044828;28;20029;-79
2023/10/14 05:06:29;;;;;;;23.45;16.45;;;409.70;2355.20;;;;;;5051781;28;20035;-81
2023/10/14 05:08:55;;;;;;;26.98;16.67;;;409.70;2355.20;;;;;;5058359;28;20120;-80
2023/10/14 05:11:25;;;;;;;28.52;17.35;;;409.70;2355.20;;;;;;5045653;28;20032;-80
2023/10/14 05:14:08;;;;;;;25.58;15.43;;;409.70;2355.20;;;;;;5052034;28;20394;-80
2023/10/14 05:16:56;;;;;;;25.95;16.80;;;409.80;2355.20;;;;;;5044864;28;20509;-80
2023/10/14 05:20:17;;;;;;;30.13;16.75;;;409.80;2355.20;;;;;;5055443;28;20035;-78
2023/10/14 05:22:24;;;;;;;27.48;16.23;;;410.00;2355.20;;;;;;5039637;28;20044;-77
2023/10/14 05:25:03;;;;;;;26.80;16.08;;;410.50;2355.20;;;;;;5051720;28;20100;-79
2023/10/14 05:27:46;;;;;;;29.00;17.75;;;410.20;2355.20;;;;;;5085042;28;20116;-77
2023/10/14 05:30:15;;;;;;;26.30;18.48;;;410.40;2355.20;;;;;;5049359;28;20075;-79
2023/10/14 05:32:43;;;;;;;28.63;19.92;;;410.40;2355.20;;;;;;5058528;28;20474;-79
2023/10/14 05:35:10;;;;;;;35.45;18.38;;;410.30;2355.20;;;;;;5059924;28;20025;-78
2023/10/14 05:37:41;;;;;;;34.38;21.40;;;410.40;2355.20;;;;;;5053437;28;20065;-78
2023/10/14 05:40:15;;;;;;;35.50;18.25;;;410.40;2355.20;;;;;;5056315;28;20498;-79
2023/10/14 05:42:45;;;;;;;29.10;19.30;;;410.30;2355.20;;;;;;5052472;28;20487;-78
2023/10/14 05:45:11;;;;;;;31.90;21.00;;;410.30;2355.20;;;;;;5049979;28;20021;-80
2023/10/14 05:47:39;;;;;;;29.50;18.45;;;410.40;2355.20;;;;;;5046126;28;20052;-79
2023/10/14 05:50:14;;;;;;;30.90;19.30;;;410.30;2355.20;;;;;;5049391;28;20029;-80
2023/10/14 05:52:43;;;;;;;37.40;20.92;;;410.40;2355.20;;;;;;5045507;28;20037;-80
2023/10/14 05:55:09;;;;;;;42.25;20.52;;;410.30;2355.20;;;;;;5046443;28;20462;-79
2023/10/14 05:57:39;;;;;;;37.05;21.42;;;410.50;2355.20;;;;;;5048329;28;20479;-80
2023/10/14 06:00:41;;;;;;;29.88;19.83;;;435.20;2355.20;;;;;;5066908;28;20044;-81
2023/10/14 06:02:59;;;;;;;30.38;20.55;;;435.20;2355.20;;;;;;5037843;28;20084;-79
2023/10/14 06:05:26;;;;;;;37.15;21.52;;;435.20;2355.20;;;;;;5049016;28;20049;-80
2023/10/14 06:08:05;;;;;;;34.25;20.55;;;435.30;2355.20;;;;;;5076567;28;20082;-79
2023/10/14 06:10:36;;;;;;;29.85;20.73;;;435.50;2355.20;;;;;;5059945;28;20017;-79
2023/10/14 06:13:05;;;;;;;34.75;23.48;;;435.50;2355.20;;;;;;5050092;28;20032;-80
2023/10/14 06:15:39;;;;;;;31.80;21.08;;;435.60;2355.20;;;;;;5056304;28;20016;-80
2023/10/14 06:18:05;;;;;;;33.40;22.35;;;435.80;2355.20;;;;;;5063156;28;20035;-80
2023/10/14 06:20:34;;;;;;;38.33;22.85;;;435.80;2355.20;;;;;;5049753;28;20588;-80
2023/10/14 06:23:01;;;;;;;44.70;23.40;;;435.70;2355.20;;;;;;5039511;28;20498;-78
2023/10/14 06:25:29;;;;;;;33.92;23.88;;;435.80;2355.20;;;;;;5057393;28;20025;-80
2023/10/14 06:27:55;;;;;;;38.10;24.58;;;436.00;2355.20;;;;;;5055246;28;20017;-79
2023/10/14 06:30:21;;;;;;;37.90;24.27;;;436.00;2355.20;;;;;;5050810;28;20056;-79
2023/10/14 06:32:53;;;;;;;41.72;24.58;;;436.10;2355.20;;;;;;5063325;28;20479;-80
2023/10/14 06:35:20;;;;;;;32.83;23.00;;;461.10;2380.80;;;;;;5060391;28;20120;-79
2023/10/14 06:37:46;;;;;;;38.60;25.02;;;460.90;2380.80;;;;;;5044821;28;20124;-80
2023/10/14 06:40:19;;;;;;;34.85;25.85;;;461.10;2380.80;;;;;;5054825;28;20025;-80
2023/10/14 06:43:06;;;;;;;34.45;25.30;;;461.20;2380.80;;;;;;5025023;28;20057;-81
2023/10/14 06:45:33;;;;;;;44.97;25.50;;;461.50;2380.80;;;;;;5010083;28;20068;-80
2023/10/14 06:47:59;;;;;;;38.00;25.25;;;486.40;2380.80;;;;;;5021506;28;20125;-80
2023/10/14 06:50:26;;;;;;;33.67;25.58;;;486.60;2380.80;;;;;;5003582;28;20033;-80
2023/10/14 06:52:53;;;;;;;40.13;25.50;;;486.90;2380.80;;;;;;5016284;28;20029;-80
2023/10/14 06:55:22;;;;;;;39.85;26.50;;;487.10;2380.80;;;;;;5012741;28;20022;-80
2023/10/14 06:57:53;;;;;;;31.48;24.98;;;487.30;2380.80;;;;;;5021550;28;20046;-81
2023/10/14 07:00:25;;;;;;;37.17;24.65;;;512.10;2380.80;;;;;;5014301;28;20025;-80
2023/10/14 07:02:53;;;;;;;35.70;23.17;;;512.20;2380.80;;;;;;5003932;28;20044;-80
2023/10/14 07:05:20;;;;;;;34.92;23.35;;;512.60;2380.80;;;;;;5027210;28;20502;-80
2023/10/14 07:07:47;;;;;;;34.92;23.27;;;512.70;2380.80;;;;;;5031151;28;20052;-81
2023/10/14 07:10:13;;;;;;;32.58;22.67;;;512.60;2380.80;;;;;;5005976;28;20034;-80
2023/10/14 07:12:39;;;;;;;35.00;24.23;;;512.70;2380.80;;;;;;5023844;28;20033;-80
2023/10/14 07:15:14;;;;;;;33.08;22.95;;;512.90;2380.80;;;;;;5051055;28;20036;-80
2023/10/14 07:17:41;;;;;;;37.25;24.85;;;537.70;2406.40;;;;;;5043763;28;20060;-80
2023/10/14 07:20:13;;;;;;;30.60;23.10;;;537.70;2406.40;;;;;;5050182;28;20024;-81
2023/10/14 07:22:42;;;;;;;36.40;24.40;;;537.90;2406.40;;;;;;5048736;28;20479;-78
2023/10/14 07:25:11;;;;;;;35.28;23.38;;;538.00;2406.40;;;;;;5060552;28;20025;-79
2023/10/14 07:27:40;;;;;;;38.97;24.67;;;538.00;2406.40;;;;;;5057186;28;20486;-79
2023/10/14 07:30:16;;;;;;;30.55;23.33;;;538.20;2406.40;;;;;;5067224;28;20117;-78
2023/10/14 07:32:44;;;;;;;33.10;23.73;;;538.10;2406.40;;;;;;5054578;28;20021;-78
2023/10/14 07:35:16;;;;;;;35.30;24.17;;;538.20;2406.40;;;;;;5065543;28;20064;-79
2023/10/14 07:37:48;;;;;;;39.97;24.98;;;538.20;2406.40;;;;;;5070412;28;20025;-78
2023/10/14 07:40:26;;;;;;;42.47;26.60;;;538.30;2406.40;;;;;;5082606;28;20487;-78
2023/10/14 07:43:13;;;;;;;41.90;26.40;;;538.10;2406.40;;;;;;5060576;28;20120;-78
2023/10/14 07:45:42;;;;;;;;;;;538.30;2406.40;;;;;;5047307;28;20032;-79
2023/10/14 07:48:09;;;;;;;39.80;27.33;;;563.20;2432.00;;;;;;5067346;28;19909;-78
2023/10/14 07:50:44;;;;;;;44.28;28.35;;;563.20;2432.00;;;;;;5053338;28;20479;-79
2023/10/14 07:53:13;;;;;;;40.90;28.70;;;563.20;2432.00;;;;;;5042212;28;20113;-78
2023/10/14 07:55:41;;;;;;;44.05;29.60;;;563.30;2432.00;;;;;;5049345;28;20039;-79
2023/10/14 07:58:10;;;;;;;44.92;29.30;;;563.30;2432.00;;;;;;5056154;28;20059;-80
2023/10/14 08:00:41;;;;;;;39.17;29.40;;;563.30;2432.00;;;;;;5048322;28;20458;-78
2023/10/14 08:03:14;;;;;;;45.22;30.30;;;563.30;2432.00;;;;;;5044405;28;20467;-79
2023/10/14 08:05:41;;;;;;;37.80;29.05;;;563.30;2432.00;;;;;;5053995;28;20037;-78
2023/10/14 08:08:09;;;;;;;45.28;29.40;;;563.50;2432.00;;;;;;5045722;28;20037;-78
2023/10/14 08:10:35;;;;;;;45.40;29.08;;;563.70;2432.00;;;;;;5057832;28;20031;-79
2023/10/14 08:13:04;;;;;;;48.85;29.05;;;;;;;;;;5056244;28;20045;-78
2023/10/14 08:15:31;;;;;;;39.35;29.20;;;563.90;2432.00;;;;;;5047928;28;20092;-78
2023/10/14 08:18:06;;;;;;;40.42;29.20;;;564.00;2432.00;;;;;;5051489;28;20021;-79
2023/10/14 08:20:35;;;;;;;38.20;28.80;;;564.10;2432.00;;;;;;5050334;28;20021;-79
2023/10/14 08:23:09;;;;;;;39.33;28.65;;;588.80;2432.00;;;;;;5054098;28;20029;-78
2023/10/14 08:25:35;;;;;;;38.33;27.92;;;;;;;;;;5043878;28;20466;-78
2023/10/14 08:28:05;;;;;;;40.78;28.02;;;589.10;2432.00;;;;;;5041666;28;20037;-78
2023/10/14 08:30:34;;;;;;;41.42;25.77;;;;;;;;;;5057630;28;20025;-79
2023/10/14 08:33:03;;;;;;;37.90;26.33;;;589.60;2432.00;;;;;;5060688;28;20037;-80
2023/10/14 08:35:29;;;;;;;37.65;25.60;;;614.40;2432.00;;;;;;5048236;28;20480;-79
2023/10/14 08:37:57;;;;;;;35.72;24.73;;;;;;;;;;5048241;28;20032;-77
2023/10/14 08:40:26;;;;;;;40.05;25.65;;;614.60;2432.00;;;;;;5051592;28;20047;-77
2023/10/14 08:42:57;;;;;;;40.10;23.33;;;614.70;2432.00;;;;;;5047074;28;20053;-77
2023/10/14 08:45:26;;;;;;;34.95;22.30;;;614.80;2432.00;;;;;;5084907;28;20025;-76
2023/10/14 08:47:54;;;;;;;35.88;21.33;;;614.80;2432.00;;;;;;5054393;28;20025;-77
2023/10/14 08:50:25;;;;;;;29.20;18.60;;;614.60;2432.00;;;;;;5050962;28;20037;-77
2023/10/14 08:52:54;;;;;;;45.25;20.75;;;614.80;2432.00;;;;;;5052688;28;20098;-76
2023/10/14 08:55:20;;;;;;;28.85;20.27;;;614.80;2432.00;;;;;;5046251;28;20025;-78
2023/10/14 08:57:47;;;;;;;32.95;19.63;;;614.90;2432.00;;;;;;5044757;28;20402;-77
2023/10/14 09:00:19;;;;;;;30.40;18.65;;;615.10;2432.00;;;;;;5065819;28;20017;-77
2023/10/14 09:02:48;;;;;;;31.70;18.92;;;615.20;2432.00;;;;;;5047015;28;20032;-77
2023/10/14 09:05:16;;;;;;;26.70;18.67;;;615.20;2432.00;;;;;;5048321;28;20064;-77
2023/10/14 09:07:45;;;;;;;28.38;19.92;;;640.00;2432.00;;;;;;5063099;28;20359;-77
2023/10/14 09:10:11;;;;;;;30.08;20.23;;;640.20;2432.00;;;;;;5050331;28;20052;-76
2023/10/14 09:12:39;;;;;;;33.55;20.42;;;640.60;2432.00;;;;;;5043517;28;20028;-77
2023/10/14 09:15:05;;;;;;;29.80;18.20;;;640.80;2432.00;;;;;;5037049;28;20029;-78
2023/10/14 09:17:31;;;;;;;24.55;17.67;;;665.60;2432.00;;;;;;5043397;28;20041;-78
2023/10/14 09:19:57;;;;;;;34.50;19.88;;;665.90;2432.00;;;;;;5049704;28;20387;-77
2023/10/14 09:22:24;;;;;;;26.15;17.17;;;666.00;2406.40;;;;;;5052993;28;20091;-77
2023/10/14 09:24:59;;;;;;;30.65;18.48;;;666.20;2355.20;;;;;;5051693;28;20479;-77
2023/10/14 09:27:32;;;;;;;27.80;18.43;;;666.50;2355.20;;;;;;5055118;28;20397;-77
2023/10/14 09:29:58;;;;;;;35.85;18.52;;;691.50;2278.40;;;;;;5044044;28;20021;-78
2023/10/14 09:32:24;;;;;;;25.15;15.80;;;666.50;2252.80;;;;;;5047816;28;20369;-77
2023/10/14 09:34:51;;;;;;;29.42;15.57;;;691.80;2150.40;;;;;;5053071;28;20033;-77
2023/10/14 09:37:17;;;;;;;31.00;17.20;;;691.90;2150.40;;;;;;5044272;28;20506;-78
2023/10/14 09:39:48;;;;;;;27.15;16.05;;;691.90;2099.20;;;;;;5053732;28;20033;-78
2023/10/14 09:42:18;;;;;;;23.90;14.73;;;716.80;2073.60;;;;;;5055956;28;20025;-78
2023/10/14 09:44:45;;;;;;;21.67;14.05;;;717.20;2048.00;;;;;;5046895;28;20050;-78
2023/10/14 09:47:19;;;;;;;18.35;12.73;;;717.10;1945.60;;;;;;5048200;28;20073;-77
2023/10/14 09:49:47;;;;;;;19.92;12.70;;;717.40;1868.80;;;;;;5046835;28;20020;-75
2023/10/14 09:52:17;;;;;;;19.85;12.68;;;717.70;1894.40;;;;;;5051155;28;20385;-76
2023/10/14 09:54:42;;;;;;;21.13;12.60;;;717.70;1843.20;;;;;;5053450;28;20488;-75
2023/10/14 09:57:12;;;;;;;27.23;14.32;;;742.60;1868.80;;;;;;5049167;28;20049;-77
2023/10/14 09:59:44;;;;;;;19.77;11.48;;;742.60;1868.80;;;;;;5041997;28;20079;-76
2023/10/14 10:02:11;;;;;;;21.80;13.82;;;742.60;1868.80;;;;;;5053042;28;20043;-74
2023/10/14 10:04:44;;;;;;;20.25;13.18;;;742.90;1817.60;;;;;;5048684;28;20113;-75
2023/10/14 10:07:10;;;;;;;23.70;12.95;;;742.80;1843.20;;;;;;5051202;28;20056;-75
2023/10/14 10:10:10;;;;;;;22.38;13.38;;;742.70;1766.40;;;;;;5056820;28;20469;-76
2023/10/14 10:12:37;;;;;;;26.02;14.73;;;743.00;1740.80;;;;;;5040685;28;20114;-77
2023/10/14 10:15:06;;;;;;;27.67;16.40;;;743.10;1766.40;;;;;;5047446;28;20087;-76
2023/10/14 10:17:39;;;;;;;24.70;15.43;;;743.30;1740.80;;;;;;5045211;28;20086;-75
2023/10/14 10:20:09;;;;;;;28.20;16.20;;;;;;;;;;5054599;28;20037;-75
2023/10/14 10:22:45;;;;;;;26.58;15.25;;;768.10;1689.60;;;;;;5056209;28;20100;-75
2023/10/14 10:25:14;;;;;;;;;;;768.10;1664.00;;;;;;5052599;28;20082;-76
2023/10/14 10:27:44;;;;;;;20.98;15.93;;;768.10;1664.00;;;;;;5046421;28;20023;-75
2023/10/14 10:30:16;;;;;;;28.45;16.70;;;743.30;1689.60;;;;;;5043511;28;20076;-76
2023/10/14 10:32:46;;;;;;;29.40;16.85;;;768.10;1664.00;;;;;;5057447;28;20024;-76
2023/10/14 10:35:14;;;;;;;32.58;16.20;;;743.30;1664.00;;;;;;5055944;28;20013;-76
2023/10/14 10:37:43;;;;;;;25.80;16.40;;;743.30;1664.00;;;;;;5047687;28;20068;-78
2023/10/14 10:40:10;;;;;;;21.98;16.17;;;768.00;1664.00;;;;;;5048812;28;20024;-76
2023/10/14 10:42:46;;;;;;;28.58;16.50;;;743.00;1664.00;;;;;;5052075;28;20028;-76
2023/10/14 10:45:20;;;;;;;24.70;15.43;;;768.10;1664.00;;;;;;5050373;28;20033;-76
2023/10/14 10:47:57;;;;;;;23.52;16.50;;;743.10;1689.60;;;;;;5055559;28;20048;-75
2023/10/14 10:50:40;;;;;;;23.42;15.70;;;743.10;1715.20;;;;;;5059123;28;20032;-76
2023/10/14 10:53:06;;;;;;;29.23;15.88;;;768.10;1689.60;;;;;;5049185;28;20021;-78
2023/10/14 10:55:40;;;;;;;25.52;14.98;;;768.10;1664.00;;;;;;5044953;28;20033;-76
2023/10/14 10:58:16;;;;;;;20.33;14.70;;;768.40;1664.00;;;;;;5051351;28;20040;-77
2023/10/14 11:00:47;;;;;;;32.30;17.00;;;768.30;1638.40;;;;;;5062163;28;20150;-79
2023/10/14 11:03:15;;;;;;;25.00;14.93;;;768.30;1689.60;;;;;;5044482;28;20386;-77
2023/10/14 11:05:45;;;;;;;22.48;14.93;;;768.30;1638.40;;;;;;5047307;28;20028;-77
2023/10/14 11:08:11;;;;;;;23.92;14.60;;;768.60;1638.40;;;;;;5049271;28;20112;-76
2023/10/14 11:10:39;;;;;;;25.17;13.65;;;768.20;1612.80;;;;;;5046500;28;20021;-75
2023/10/14 11:13:07;;;;;;;21.30;13.73;;;768.60;1612.80;;;;;;5060998;28;20025;-77
2023/10/14 11:15:34;;;;;;;24.27;14.07;;;768.40;1612.80;;;;;;5048061;28;20030;-76
2023/10/14 11:18:01;;;;;;;24.50;13.43;;;768.60;1587.20;;;;;;5060144;28;20036;-77
2023/10/14 11:20:36;;;;;;;19.75;13.95;;;768.70;1587.20;;;;;;5048582;28;20434;-78
2023/10/14 11:23:04;;;;;;;22.63;13.48;;;768.80;1561.60;;;;;;5063724;28;20168;-76
2023/10/14 11:25:30;;;;;;;22.02;13.00;;;768.80;1587.20;;;;;;5066623;28;20029;-77
2023/10/14 11:27:57;;;;;;;25.30;13.20;;;768.70;1587.20;;;;;;5054393;28;20491;-75
2023/10/14 11:30:29;;;;;;;19.95;13.60;;;768.60;1561.60;;;;;;5057009;28;20159;-75
2023/10/14 11:32:58;;;;;;;22.30;13.13;;;768.60;1561.60;;;;;;5048879;28;20426;-75
2023/10/14 11:35:28;;;;;;;24.10;14.10;;;768.70;1587.20;;;;;;5039729;28;20077;-74
2023/10/14 11:38:03;;;;;;;27.02;13.80;;;768.70;1587.20;;;;;;5047977;28;20086;-75
2023/10/14 11:40:36;;;;;;;20.05;12.40;;;768.80;1561.60;;;;;;5045403;28;20029;-79
2023/10/14 11:43:04;;;;;;;15.50;11.57;;;768.80;1561.60;;;;;;5051777;28;20048;-76
2023/10/14 11:45:35;;;;;;;19.70;12.65;;;768.60;1561.60;;;;;;5042040;28;20060;-75
2023/10/14 11:48:01;;;;;;;18.27;11.68;;;768.80;1561.60;;;;;;5057644;28;20020;-75
2023/10/14 11:50:30;;;;;;;18.27;11.18;;;793.60;1587.20;;;;;;5049973;28;20032;-74
2023/10/14 11:52:57;;;;;;;28.55;13.85;;;768.40;1536.00;;;;;;5048502;28;20024;-76
2023/10/14 11:55:27;;;;;;;15.20;11.80;;;768.20;1536.00;;;;;;5042892;28;20490;-75
2023/10/14 11:57:56;;;;;;;18.48;10.75;;;768.70;1484.80;;;;;;5056301;28;20478;-75
2023/10/14 12:00:22;;;;;;;17.40;11.20;;;768.90;1484.80;;;;;;5061244;28;20031;-77
2023/10/14 12:02:49;;;;;;;22.58;12.18;;;793.60;1484.80;;;;;;5047466;28;20067;-77
2023/10/14 12:05:16;;;;;;;22.75;11.82;;;768.80;1484.80;;;;;;5048218;28;20070;-75
2023/10/14 12:07:47;;;;;;;20.50;10.82;;;793.60;1484.80;;;;;;5068636;28;20048;-75
2023/10/14 12:10:13;;;;;;;22.73;10.70;;;793.70;1510.40;;;;;;5055351;28;20024;-76
2023/10/14 12:12:39;;;;;;;17.30;9.50;;;793.70;1459.20;;;;;;5074195;28;20033;-76
2023/10/14 12:15:08;;;;;;;21.42;10.73;;;794.00;1459.20;;;;;;5054622;28;20104;-76
2023/10/14 12:17:38;;;;;;;12.88;9.80;;;793.70;1382.40;;;;;;5053831;28;20064;-75
2023/10/14 12:20:10;;;;;;;16.88;11.00;;;768.70;1408.00;;;;;;5050682;28;20058;-75
2023/10/14 12:22:40;;;;;;;16.45;9.77;;;768.90;1408.00;;;;;;5046308;28;20021;-76
2023/10/14 12:25:06;;;;;;;15.35;8.90;;;793.60;1382.40;;;;;;5043005;28;20033;-76
2023/10/14 12:27:33;;;;;;;17.40;7.85;;;768.90;1382.40;;;;;;5047678;28;20025;-76
2023/10/14 12:30:00;;;;;;;15.32;9.27;;;793.70;1408.00;;;;;;5053251;28;20119;-76
2023/10/14 12:32:32;;;;;;;12.02;8.80;;;793.70;1408.00;;;;;;5043611;28;20116;-78
2023/10/14 12:35:06;;;;;;;13.85;8.00;;;793.70;1382.40;;;;;;5046008;28;20091;-76
2023/10/14 12:37:33;;;;;;;16.15;7.65;;;768.70;1356.80;;;;;;5080840;28;20037;-76